Time;durP1;ratioP1;P1;durP2;ratioP2;P2;SDS_P1;SDS_P2;PMS_P1;PMS_P2;Temp;Humidity;BMP_temperature;BMP_pressure;BME280_temperature;BME280_humidity;BME280_pressure;Samples;Min_cycle;Max_cycle;Signal;HPM_P1;HPM_P2
2022/03/19 00:01:14;;;;;;;43.87;24.60;;;10.10;99.90;;;;;;5063602;28;20461;-79
2022/03/19 00:03:42;;;;;;;45.63;26.80;;;10.00;99.90;;;;;;5063198;28;21035;-79
2022/03/19 00:06:11;;;;;;;45.03;26.57;;;10.00;99.90;;;;;;5059318;28;20491;-79
2022/03/19 00:08:39;;;;;;;40.80;25.60;;;10.00;99.90;;;;;;5061759;28;20491;-79
2022/03/19 00:11:07;;;;;;;41.27;26.23;;;10.00;99.90;;;;;;5065056;28;20442;-80
2022/03/19 00:13:36;;;;;;;43.10;24.63;;;10.10;99.90;;;;;;5066037;28;20452;-79
2022/03/19 00:16:05;;;;;;;44.20;27.03;;;10.10;99.90;;;;;;5063199;28;20489;-79
2022/03/19 00:18:34;;;;;;;42.77;26.20;;;10.10;99.90;;;;;;5060033;28;20890;-79
2022/03/19 00:21:02;;;;;;;47.27;27.87;;;10.10;99.90;;;;;;5063704;28;20940;-79
2022/03/19 00:23:31;;;;;;;44.10;26.07;;;10.00;99.90;;;;;;5058685;28;20469;-79
2022/03/19 00:26:00;;;;;;;41.20;26.27;;;10.00;99.90;;;;;;5056987;28;21433;-78
2022/03/19 00:28:28;;;;;;;47.80;26.90;;;10.00;99.90;;;;;;5061353;28;20487;-79
2022/03/19 00:30:58;;;;;;;43.20;24.83;;;10.00;99.90;;;;;;5064162;28;20436;-79
2022/03/19 00:33:26;;;;;;;45.80;26.30;;;9.90;99.90;;;;;;5051895;28;20546;-79
2022/03/19 00:35:55;;;;;;;46.43;28.87;;;10.20;99.90;;;;;;5062169;28;20473;-80
2022/03/19 00:38:24;;;;;;;44.43;25.93;;;9.90;99.90;;;;;;5060970;28;20445;-79
2022/03/19 00:40:52;;;;;;;44.43;25.60;;;9.80;99.90;;;;;;5059436;28;20506;-80
2022/03/19 00:43:21;;;;;;;45.17;25.73;;;10.20;99.90;;;;;;5059610;28;20545;-79
2022/03/19 00:45:49;;;;;;;41.63;27.30;;;9.90;99.90;;;;;;5060047;28;20479;-79
2022/03/19 00:48:18;;;;;;;45.73;25.70;;;9.90;99.90;;;;;;5056859;28;20451;-80
2022/03/19 00:50:46;;;;;;;47.10;26.20;;;9.90;99.90;;;;;;5058253;28;20477;-80
2022/03/19 00:53:15;;;;;;;48.07;27.50;;;9.80;99.90;;;;;;5063918;28;20457;-80
2022/03/19 00:55:48;;;;;;;39.80;26.17;;;9.80;99.90;;;;;;5060551;28;20489;-80
2022/03/19 00:58:16;;;;;;;43.53;26.43;;;9.70;99.90;;;;;;5062281;28;20465;-79
2022/03/19 01:00:45;;;;;;;36.63;23.17;;;9.70;99.90;;;;;;5058391;28;20470;-79
2022/03/19 01:03:13;;;;;;;37.20;24.50;;;9.70;99.90;;;;;;5063634;28;20837;-79
2022/03/19 01:05:42;;;;;;;45.47;25.83;;;9.80;99.90;;;;;;5057901;28;20482;-78
2022/03/19 01:08:11;;;;;;;39.90;24.40;;;9.90;99.90;;;;;;5060769;28;20812;-79
2022/03/19 01:10:41;;;;;;;38.27;23.60;;;10.00;99.90;;;;;;5054737;28;20487;-79
2022/03/19 01:13:10;;;;;;;40.50;25.83;;;9.90;99.90;;;;;;5061102;28;20515;-79
2022/03/19 01:15:38;;;;;;;40.60;24.47;;;9.90;99.90;;;;;;5059590;28;20946;-79
2022/03/19 01:18:06;;;;;;;41.67;24.37;;;9.80;99.90;;;;;;5055562;28;20458;-79
2022/03/19 01:20:35;;;;;;;43.20;27.03;;;9.80;99.90;;;;;;5057086;28;20443;-77
2022/03/19 01:23:03;;;;;;;38.60;23.77;;;9.70;99.90;;;;;;5058004;28;20466;-79
2022/03/19 01:25:31;;;;;;;42.03;24.23;;;9.70;99.90;;;;;;5059270;28;20454;-79
2022/03/19 01:28:01;;;;;;;38.47;24.47;;;9.70;99.90;;;;;;5059753;28;20455;-79
2022/03/19 01:30:29;;;;;;;37.77;25.30;;;9.70;99.90;;;;;;5058269;28;20904;-78
2022/03/19 01:32:57;;;;;;;43.63;24.47;;;9.70;99.90;;;;;;5053932;28;20481;-79
2022/03/19 01:35:25;;;;;;;43.80;24.93;;;9.70;99.90;;;;;;5055224;28;20506;-78
2022/03/19 01:37:54;;;;;;;41.90;26.80;;;9.70;99.90;;;;;;5059031;28;20961;-79
2022/03/19 01:40:22;;;;;;;35.87;24.17;;;9.60;99.90;;;;;;5055125;28;20844;-77
2022/03/19 01:42:53;;;;;;;37.90;23.40;;;9.50;99.90;;;;;;5056557;28;20441;-80
2022/03/19 01:45:24;;;;;;;41.90;24.60;;;9.50;99.90;;;;;;5050763;28;20442;-78
2022/03/19 01:47:53;;;;;;;40.93;23.03;;;9.40;99.90;;;;;;5062659;28;20561;-79
2022/03/19 01:50:23;;;;;;;39.97;24.60;;;9.50;99.90;;;;;;5056683;28;20534;-80
2022/03/19 01:52:52;;;;;;;40.83;24.20;;;9.50;99.90;;;;;;5054503;28;20549;-79
2022/03/19 01:55:22;;;;;;;39.40;25.20;;;9.50;99.90;;;;;;5057428;28;20943;-80
2022/03/19 01:57:51;;;;;;;40.83;24.53;;;9.50;99.90;;;;;;5068599;28;20437;-79
2022/03/19 02:00:23;;;;;;;41.63;22.67;;;9.50;99.90;;;;;;5057454;28;20446;-80
2022/03/19 02:02:53;;;;;;;37.67;22.47;;;9.50;99.90;;;;;;5064019;28;20477;-79
2022/03/19 02:05:23;;;;;;;39.80;23.93;;;9.50;99.90;;;;;;5058217;28;20590;-79
2022/03/19 02:07:52;;;;;;;33.10;22.13;;;9.50;99.90;;;;;;5054076;28;20464;-79
2022/03/19 02:10:22;;;;;;;45.63;24.07;;;9.50;99.90;;;;;;5055207;28;20471;-79
2022/03/19 02:12:52;;;;;;;37.60;23.17;;;9.50;99.90;;;;;;5053364;28;23023;-79
2022/03/19 02:15:23;;;;;;;39.20;22.77;;;9.40;99.90;;;;;;5056253;28;21771;-77
2022/03/19 02:17:51;;;;;;;38.90;23.17;;;9.40;99.90;;;;;;5055043;28;20589;-79
2022/03/19 02:20:19;;;;;;;35.80;21.97;;;9.40;99.90;;;;;;5053446;28;20479;-78
2022/03/19 02:25:37;;;;;;;45.60;25.03;;;9.40;99.90;;;;;;5052799;28;21301;-77
2022/03/19 02:28:06;;;;;;;38.90;23.53;;;9.40;99.90;;;;;;5053858;28;20459;-77
2022/03/19 02:30:39;;;;;;;36.40;24.53;;;9.40;99.90;;;;;;5052000;28;20859;-76
2022/03/19 02:33:08;;;;;;;37.87;22.27;;;9.40;99.90;;;;;;5060819;28;20839;-78
2022/03/19 02:35:36;;;;;;;35.03;21.50;;;9.40;99.90;;;;;;5053095;28;21310;-76
2022/03/19 02:38:05;;;;;;;38.53;23.10;;;9.20;99.90;;;;;;5051148;28;20460;-77
2022/03/19 02:40:34;;;;;;;42.40;23.67;;;9.20;99.90;;;;;;5052428;28;20437;-78
2022/03/19 02:43:03;;;;;;;34.77;24.27;;;9.20;99.90;;;;;;5055195;28;20447;-79
2022/03/19 02:45:31;;;;;;;38.67;23.70;;;9.20;99.90;;;;;;5058385;28;20441;-78
2022/03/19 02:47:59;;;;;;;35.73;22.17;;;9.50;99.90;;;;;;5052653;28;20470;-79
2022/03/19 02:50:31;;;;;;;46.70;23.40;;;9.20;99.90;;;;;;5048583;28;20469;-77
2022/03/19 02:53:01;;;;;;;36.93;23.30;;;9.20;99.90;;;;;;5053268;28;20458;-78
2022/03/19 02:55:32;;;;;;;37.37;22.80;;;9.20;99.90;;;;;;5054068;28;20465;-78
2022/03/19 02:58:03;;;;;;;41.43;23.40;;;9.30;99.90;;;;;;5058980;28;20522;-79
2022/03/19 03:00:31;;;;;;;37.03;23.57;;;9.20;99.90;;;;;;5051133;28;20534;-79
2022/03/19 03:03:01;;;;;;;39.83;23.80;;;9.20;99.90;;;;;;5055326;28;20481;-78
2022/03/19 03:05:29;;;;;;;37.63;23.83;;;9.40;99.90;;;;;;5054324;28;20453;-77
2022/03/19 03:07:57;;;;;;;33.30;20.57;;;9.20;99.90;;;;;;5055206;28;20444;-78
2022/03/19 03:10:25;;;;;;;36.30;23.97;;;9.10;99.90;;;;;;5058440;28;20460;-79
2022/03/19 03:12:54;;;;;;;35.23;21.00;;;9.10;99.90;;;;;;5049975;28;20445;-78
2022/03/19 03:15:24;;;;;;;36.63;21.53;;;9.10;99.90;;;;;;5051455;28;20457;-77
2022/03/19 03:17:52;;;;;;;35.63;22.13;;;9.10;99.90;;;;;;5055960;28;20450;-80
2022/03/19 03:20:21;;;;;;;45.73;24.23;;;9.10;99.90;;;;;;5049575;28;20461;-79
2022/03/19 03:22:50;;;;;;;39.40;22.60;;;9.00;99.90;;;;;;5056187;28;20447;-79
2022/03/19 03:25:18;;;;;;;35.87;21.20;;;9.00;99.90;;;;;;5048620;28;20475;-79
2022/03/19 03:27:47;;;;;;;34.33;22.20;;;9.00;99.90;;;;;;5054371;28;20531;-79
2022/03/19 03:30:15;;;;;;;33.47;19.93;;;8.90;99.90;;;;;;5052616;28;20487;-80
2022/03/19 03:32:45;;;;;;;36.30;21.93;;;9.00;99.90;;;;;;5052361;28;20983;-81
2022/03/19 03:35:13;;;;;;;34.13;22.23;;;8.90;99.90;;;;;;5058586;28;20440;-78
2022/03/19 03:37:41;;;;;;;34.57;21.30;;;9.00;99.90;;;;;;5056507;28;20510;-79
2022/03/19 03:40:10;;;;;;;33.77;21.33;;;9.00;99.90;;;;;;5063384;28;20871;-78
2022/03/19 03:42:41;;;;;;;37.27;21.97;;;9.00;99.90;;;;;;5057804;28;20459;-79
2022/03/19 03:45:10;;;;;;;38.13;22.10;;;9.00;99.90;;;;;;5051895;28;20885;-79
2022/03/19 03:47:38;;;;;;;35.07;20.33;;;8.90;99.90;;;;;;5058016;28;20864;-80
2022/03/19 03:50:09;;;;;;;32.03;21.27;;;8.80;99.90;;;;;;5054850;28;20460;-79
2022/03/19 03:52:38;;;;;;;32.97;20.17;;;8.80;99.90;;;;;;5055600;28;20472;-79
2022/03/19 03:55:08;;;;;;;36.83;20.83;;;8.80;99.90;;;;;;5054003;28;20481;-79
2022/03/19 03:57:36;;;;;;;33.40;20.57;;;8.70;99.90;;;;;;5055510;28;20476;-79
2022/03/19 04:00:08;;;;;;;34.70;21.70;;;8.70;99.90;;;;;;5059527;28;20464;-80
2022/03/19 04:02:37;;;;;;;36.30;21.33;;;8.70;99.90;;;;;;5063246;28;21268;-79
2022/03/19 04:05:06;;;;;;;29.20;20.10;;;8.80;99.90;;;;;;5058874;28;20457;-79
2022/03/19 04:07:36;;;;;;;35.30;23.53;;;8.80;99.90;;;;;;5057771;28;20520;-80
2022/03/19 04:10:05;;;;;;;35.30;21.70;;;8.80;99.90;;;;;;5055008;28;20513;-79
2022/03/19 04:12:34;;;;;;;36.70;20.63;;;8.80;99.90;;;;;;5057553;28;20457;-79
2022/03/19 04:15:02;;;;;;;31.03;20.60;;;8.70;99.90;;;;;;5060705;28;20515;-79
2022/03/19 04:17:30;;;;;;;28.97;19.47;;;9.00;99.90;;;;;;5055432;28;20568;-80
2022/03/19 04:19:58;;;;;;;35.93;20.70;;;8.70;99.90;;;;;;5063877;28;20449;-79
2022/03/19 04:22:34;;;;;;;32.13;21.03;;;8.70;99.90;;;;;;5054157;28;20519;-80
2022/03/19 04:25:06;;;;;;;34.03;21.40;;;8.70;99.90;;;;;;5054806;28;20452;-79
2022/03/19 04:27:34;;;;;;;32.80;20.27;;;8.70;99.90;;;;;;5061687;28;20482;-80
2022/03/19 04:30:02;;;;;;;33.33;20.73;;;8.70;99.90;;;;;;5057518;28;20470;-79
2022/03/19 04:32:30;;;;;;;32.40;19.50;;;8.70;99.90;;;;;;5062980;28;20486;-79
2022/03/19 04:36:29;;;;;;;34.23;20.23;;;8.70;99.90;;;;;;5059974;28;20587;-79
2022/03/19 04:37:46;;;;;;;30.73;20.60;;;8.70;99.90;;;;;;5055504;28;20577;-78
2022/03/19 04:40:16;;;;;;;36.17;20.50;;;8.70;99.90;;;;;;5058894;28;20462;-79
2022/03/19 04:42:44;;;;;;;30.30;20.07;;;8.70;99.90;;;;;;5054513;28;20439;-78
2022/03/19 04:45:13;;;;;;;31.10;19.30;;;8.70;99.90;;;;;;5057928;28;20520;-79
2022/03/19 04:47:41;;;;;;;30.20;18.60;;;8.60;99.90;;;;;;5055072;28;21030;-79
2022/03/19 04:50:10;;;;;;;28.57;21.17;;;8.70;99.90;;;;;;5054620;28;20452;-79
2022/03/19 04:52:39;;;;;;;37.17;21.70;;;8.70;99.90;;;;;;5058521;28;20480;-79
2022/03/19 04:55:09;;;;;;;34.23;21.23;;;8.70;99.90;;;;;;5055458;28;20476;-79
2022/03/19 04:57:40;;;;;;;31.10;21.30;;;8.70;99.90;;;;;;5054200;28;20515;-79
2022/03/19 05:00:11;;;;;;;33.37;21.17;;;8.70;99.90;;;;;;5058124;28;20557;-78
2022/03/19 05:02:39;;;;;;;35.07;20.53;;;8.70;99.90;;;;;;5051935;28;20457;-79
2022/03/19 05:05:08;;;;;;;32.90;20.40;;;8.70;99.90;;;;;;5060667;28;20986;-79
2022/03/19 05:07:37;;;;;;;30.73;19.83;;;8.70;99.90;;;;;;5061986;28;20477;-79
2022/03/19 05:12:55;;;;;;;30.80;19.97;;;8.80;99.90;;;;;;5056002;28;20488;-80
2022/03/19 05:15:26;;;;;;;33.40;20.50;;;8.70;99.90;;;;;;5051144;28;20449;-79
2022/03/19 05:17:54;;;;;;;33.30;20.27;;;8.90;99.90;;;;;;5059224;28;20480;-80
2022/03/19 05:20:22;;;;;;;32.80;19.77;;;8.70;99.90;;;;;;5052889;28;20461;-80
2022/03/19 05:22:51;;;;;;;30.83;20.20;;;8.70;99.90;;;;;;5058744;28;20503;-79
2022/03/19 05:25:19;;;;;;;35.37;21.77;;;8.70;99.90;;;;;;5056128;28;20491;-79
2022/03/19 05:27:47;;;;;;;32.50;20.00;;;8.80;99.90;;;;;;5054492;28;20522;-79
2022/03/19 05:30:22;;;;;;;34.20;20.43;;;8.70;99.90;;;;;;5055643;28;21037;-79
2022/03/19 05:32:51;;;;;;;29.63;18.27;;;8.60;99.90;;;;;;5057065;28;20489;-78
2022/03/19 05:35:21;;;;;;;27.73;18.30;;;8.50;99.90;;;;;;5048366;28;20460;-79
2022/03/19 05:37:50;;;;;;;27.00;19.37;;;8.60;99.90;;;;;;5059155;28;20501;-78
2022/03/19 05:40:19;;;;;;;32.43;20.27;;;8.80;99.90;;;;;;5052601;28;20450;-79
2022/03/19 05:42:47;;;;;;;35.30;19.50;;;8.60;99.90;;;;;;5055711;28;20453;-80
2022/03/19 05:45:15;;;;;;;32.17;20.20;;;8.60;99.90;;;;;;5057415;28;20514;-79
2022/03/19 05:47:45;;;;;;;29.47;19.60;;;8.60;99.90;;;;;;5051851;28;20478;-79
2022/03/19 05:50:14;;;;;;;29.40;18.67;;;8.70;99.90;;;;;;5061423;28;20788;-79
2022/03/19 05:52:45;;;;;;;33.47;20.23;;;8.70;99.90;;;;;;5052054;28;20559;-77
2022/03/19 05:55:14;;;;;;;38.63;19.67;;;8.90;99.90;;;;;;5060802;28;20640;-79
2022/03/19 05:57:42;;;;;;;26.47;17.27;;;8.60;99.90;;;;;;5053517;28;20477;-79
2022/03/19 06:00:11;;;;;;;27.37;19.00;;;8.60;99.90;;;;;;5059860;28;21118;-78
2022/03/19 06:02:40;;;;;;;31.20;20.30;;;8.60;99.90;;;;;;5050943;28;20440;-79
2022/03/19 06:05:11;;;;;;;32.10;19.57;;;8.50;99.90;;;;;;5056619;28;20459;-79
2022/03/19 06:07:39;;;;;;;31.43;19.43;;;8.50;99.90;;;;;;5053117;28;20465;-79
2022/03/19 06:10:09;;;;;;;33.03;20.87;;;8.50;99.90;;;;;;5051340;28;20436;-79
2022/03/19 06:12:37;;;;;;;30.37;19.67;;;8.50;99.90;;;;;;5059447;28;20478;-79
2022/03/19 06:15:06;;;;;;;30.13;19.27;;;8.40;99.90;;;;;;5049276;28;20511;-79
2022/03/19 06:17:35;;;;;;;32.60;20.43;;;8.40;99.90;;;;;;5052357;28;20480;-79
2022/03/19 06:20:03;;;;;;;29.43;19.17;;;8.40;99.90;;;;;;5055167;28;20464;-79
2022/03/19 06:22:32;;;;;;;25.90;17.07;;;8.50;99.90;;;;;;5059405;28;20451;-77
2022/03/19 06:25:01;;;;;;;27.57;17.47;;;8.50;99.90;;;;;;5060945;28;20516;-79
2022/03/19 06:27:30;;;;;;;35.03;19.83;;;8.50;99.90;;;;;;5052790;28;20547;-78
2022/03/19 06:29:58;;;;;;;26.90;18.73;;;8.50;99.90;;;;;;5053102;28;21023;-79
2022/03/19 06:32:26;;;;;;;29.63;18.97;;;8.50;99.90;;;;;;5049115;28;20485;-78
2022/03/19 06:34:54;;;;;;;29.73;18.77;;;8.70;99.90;;;;;;5052860;28;20468;-79
2022/03/19 06:37:22;;;;;;;26.53;17.63;;;8.80;99.90;;;;;;5052678;28;20984;-79
2022/03/19 06:39:55;;;;;;;27.83;18.33;;;8.90;99.90;;;;;;5051918;28;20456;-78
2022/03/19 06:42:25;;;;;;;32.17;19.03;;;9.00;99.90;;;;;;5053121;28;20459;-80
2022/03/19 06:44:53;;;;;;;30.17;18.37;;;9.10;99.90;;;;;;5059267;28;20455;-79
2022/03/19 06:47:21;;;;;;;33.40;18.97;;;9.40;99.90;;;;;;5055954;28;20530;-78
2022/03/19 06:49:50;;;;;;;34.73;19.17;;;9.40;99.90;;;;;;5066166;28;20464;-80
2022/03/19 06:52:20;;;;;;;26.57;17.97;;;9.40;99.90;;;;;;5052530;28;20472;-79
2022/03/19 06:54:48;;;;;;;33.07;19.97;;;9.50;99.90;;;;;;5066258;28;21219;-79
2022/03/19 06:57:17;;;;;;;26.93;18.37;;;9.50;99.90;;;;;;5062891;28;20483;-79
2022/03/19 06:59:46;;;;;;;33.50;19.47;;;9.50;99.90;;;;;;5055385;28;20468;-82
2022/03/19 07:02:14;;;;;;;32.90;18.80;;;9.60;99.90;;;;;;5063384;28;20899;-78
2022/03/19 07:04:42;;;;;;;34.70;20.80;;;9.60;99.90;;;;;;5053162;28;20566;-78
2022/03/19 07:07:10;;;;;;;31.20;19.60;;;9.60;99.90;;;;;;5059931;28;20489;-77
2022/03/19 07:09:38;;;;;;;29.27;18.57;;;9.60;99.90;;;;;;5058501;28;20461;-76
2022/03/19 07:12:11;;;;;;;24.57;18.40;;;9.60;99.90;;;;;;5059501;28;20487;-77
2022/03/19 07:14:40;;;;;;;26.83;18.70;;;9.60;99.90;;;;;;5056448;28;21144;-76
2022/03/19 07:17:09;;;;;;;29.50;19.10;;;9.60;99.90;;;;;;5053671;28;20482;-77
2022/03/19 07:19:37;;;;;;;30.93;20.90;;;9.60;99.90;;;;;;5061043;28;21056;-78
2022/03/19 07:22:05;;;;;;;30.87;18.77;;;9.70;99.90;;;;;;5064948;28;20895;-75
2022/03/19 07:24:34;;;;;;;29.40;17.77;;;9.70;99.90;;;;;;5056821;28;20470;-76
2022/03/19 07:27:02;;;;;;;32.60;20.03;;;9.70;99.90;;;;;;5062768;28;20534;-77
2022/03/19 07:29:30;;;;;;;28.23;18.80;;;9.70;99.90;;;;;;5055780;28;20463;-78
2022/03/19 07:32:00;;;;;;;30.30;19.60;;;9.70;99.90;;;;;;5060785;28;20502;-76
2022/03/19 07:34:29;;;;;;;30.20;19.03;;;9.80;99.90;;;;;;5058847;28;20457;-78
2022/03/19 07:36:58;;;;;;;28.50;19.93;;;9.90;99.90;;;;;;5058589;28;20524;-77
2022/03/19 07:39:27;;;;;;;27.53;18.57;;;9.90;99.90;;;;;;5055263;28;20873;-78
2022/03/19 07:41:56;;;;;;;27.93;19.63;;;10.00;97.40;;;;;;5066135;28;20533;-77
2022/03/19 07:44:24;;;;;;;29.53;18.47;;;10.10;99.80;;;;;;5064773;28;20458;-76
2022/03/19 07:46:52;;;;;;;25.03;17.33;;;10.10;98.70;;;;;;5076863;28;20575;-76
2022/03/19 07:49:22;;;;;;;32.87;21.10;;;10.00;97.10;;;;;;5059702;28;20578;-78
2022/03/19 07:51:55;;;;;;;30.90;18.80;;;10.00;96.80;;;;;;5060148;28;20468;-76
2022/03/19 07:54:23;;;;;;;26.03;18.27;;;10.10;96.70;;;;;;5056461;28;20473;-76
2022/03/19 07:56:52;;;;;;;25.20;17.80;;;10.20;96.60;;;;;;5060491;28;20466;-76
2022/03/19 07:59:20;;;;;;;26.70;18.03;;;10.40;97.00;;;;;;5061124;28;20459;-77
2022/03/19 08:01:49;;;;;;;27.60;18.80;;;10.60;97.00;;;;;;5059044;28;20971;-75
2022/03/19 08:04:17;;;;;;;27.17;17.87;;;10.80;96.90;;;;;;5052047;28;20443;-76
2022/03/19 08:06:49;;;;;;;24.70;16.77;;;10.90;97.50;;;;;;5063180;28;20564;-77
2022/03/19 08:09:17;;;;;;;26.00;16.87;;;11.10;96.00;;;;;;5052591;28;20458;-77
2022/03/19 08:11:45;;;;;;;31.73;17.47;;;11.30;94.90;;;;;;5057189;28;20969;-77
2022/03/19 08:14:14;;;;;;;27.83;17.53;;;11.40;92.80;;;;;;5059388;28;20486;-78
2022/03/19 08:16:43;;;;;;;25.13;17.70;;;11.60;92.80;;;;;;5057929;28;21009;-79
2022/03/19 08:19:19;;;;;;;26.30;18.33;;;11.80;92.60;;;;;;5056981;28;20493;-75
2022/03/19 08:21:48;;;;;;;27.30;17.93;;;12.00;93.10;;;;;;5057680;28;20199;-76
2022/03/19 08:24:16;;;;;;;27.65;19.30;;;12.10;91.50;;;;;;5056312;28;20432;-78
2022/03/19 08:26:45;;;;;;;24.70;17.77;;;12.20;86.00;;;;;;5057162;28;20235;-78
2022/03/19 08:29:13;;;;;;;23.03;16.73;;;12.40;83.80;;;;;;5053241;28;20463;-78
2022/03/19 08:31:41;;;;;;;22.40;15.90;;;12.50;82.10;;;;;;5061768;28;20458;-78
2022/03/19 08:34:10;;;;;;;23.40;16.93;;;12.60;76.30;;;;;;5059909;28;21074;-79
2022/03/19 08:36:38;;;;;;;26.73;15.70;;;12.70;81.80;;;;;;5067439;28;20473;-77
2022/03/19 08:41:57;;;;;;;26.73;17.43;;;12.70;55.50;;;;;;5061283;28;20458;-77
2022/03/19 08:44:26;;;;;;;23.10;17.40;;;12.60;57.40;;;;;;5055588;28;20453;-77
2022/03/19 08:46:54;;;;;;;18.23;14.43;;;12.60;51.70;;;;;;5059875;28;20490;-77
2022/03/19 08:49:22;;;;;;;18.50;13.30;;;12.60;52.40;;;;;;5057408;28;20889;-78
2022/03/19 08:51:51;;;;;;;22.50;14.67;;;12.60;51.30;;;;;;5066473;28;20462;-78
2022/03/19 08:54:21;;;;;;;20.50;15.00;;;12.60;47.40;;;;;;5059919;28;20566;-78
2022/03/19 08:56:51;;;;;;;22.33;15.13;;;12.60;42.60;;;;;;5064993;28;20478;-78
2022/03/19 08:59:20;;;;;;;24.67;14.60;;;12.60;41.90;;;;;;5066203;28;20484;-77
2022/03/19 09:01:50;;;;;;;19.73;14.30;;;12.70;42.20;;;;;;5068666;28;20447;-78
2022/03/19 09:04:20;;;;;;;18.50;13.77;;;12.70;38.50;;;;;;5089108;28;20456;-79
2022/03/19 09:06:48;;;;;;;21.20;13.93;;;12.70;38.20;;;;;;5064472;28;20481;-77
2022/03/19 09:09:17;;;;;;;23.57;15.10;;;12.70;37.60;;;;;;5063106;28;21185;-78
2022/03/19 09:11:48;;;;;;;20.33;13.50;;;12.80;37.30;;;;;;5067605;28;20453;-78
2022/03/19 09:14:18;;;;;;;21.70;14.87;;;12.90;35.00;;;;;;5063906;28;20472;-78
2022/03/19 09:16:46;;;;;;;18.80;13.37;;;12.90;32.80;;;;;;5068035;28;21013;-78
2022/03/19 09:19:14;;;;;;;18.87;13.73;;;13.00;35.00;;;;;;5056840;28;20478;-78
2022/03/19 09:21:42;;;;;;;20.07;13.57;;;13.10;37.60;;;;;;5058149;28;20996;-77
2022/03/19 09:24:11;;;;;;;21.37;15.40;;;13.20;35.70;;;;;;5052890;28;21016;-76
2022/03/19 09:26:39;;;;;;;18.13;13.20;;;13.20;30.00;;;;;;5059580;28;20480;-77
2022/03/19 09:29:09;;;;;;;18.73;12.90;;;13.30;33.90;;;;;;5064000;28;20452;-78
2022/03/19 09:31:37;;;;;;;18.80;13.80;;;13.30;34.60;;;;;;5067827;28;20460;-77
2022/03/19 09:34:05;;;;;;;17.27;13.60;;;13.40;33.20;;;;;;5067909;28;20485;-77
2022/03/19 09:36:33;;;;;;;21.57;12.87;;;13.40;31.20;;;;;;5066370;28;20478;-77
2022/03/19 09:39:02;;;;;;;16.87;13.70;;;13.50;35.90;;;;;;5055626;28;20462;-78
2022/03/19 09:41:30;;;;;;;24.03;14.17;;;13.70;36.40;;;;;;5065177;28;20480;-77
2022/03/19 09:43:59;;;;;;;17.37;13.30;;;13.80;34.20;;;;;;5059000;28;20457;-78
2022/03/19 09:46:30;;;;;;;18.83;13.77;;;13.80;35.30;;;;;;5062683;28;21090;-77
2022/03/19 09:48:58;;;;;;;19.73;14.70;;;13.80;30.70;;;;;;5065571;28;20446;-77
2022/03/19 09:51:28;;;;;;;20.13;14.30;;;13.90;31.30;;;;;;5067098;28;21040;-77
2022/03/19 09:53:57;;;;;;;23.00;14.80;;;14.00;34.50;;;;;;5066951;28;20476;-79
2022/03/19 09:56:32;;;;;;;18.70;13.50;;;14.00;30.90;;;;;;5052600;28;20486;-77
2022/03/19 09:59:01;;;;;;;19.83;15.13;;;14.10;32.30;;;;;;5056617;28;21172;-77
2022/03/19 10:01:31;;;;;;;20.27;14.00;;;14.20;32.10;;;;;;5058976;28;20462;-78
2022/03/19 10:04:04;;;;;;;18.80;14.10;;;14.30;29.90;;;;;;5067808;28;20458;-78
2022/03/19 10:09:26;;;;;;;21.77;14.63;;;14.50;29.60;;;;;;5032868;28;20539;-77
2022/03/19 10:11:54;;;;;;;23.13;14.93;;;14.50;32.90;;;;;;5062319;28;20460;-76
2022/03/19 10:14:25;;;;;;;18.70;14.33;;;14.60;30.50;;;;;;5065638;28;20471;-78
2022/03/19 10:16:57;;;;;;;19.40;14.60;;;14.50;42.90;;;;;;5066344;28;21020;-77
2022/03/19 10:19:26;;;;;;;20.30;13.60;;;14.40;26.50;;;;;;5056235;28;20467;-77
2022/03/19 10:21:55;;;;;;;22.40;14.80;;;14.40;27.20;;;;;;5067613;28;20470;-78
2022/03/19 10:24:25;;;;;;;18.83;14.67;;;14.30;23.60;;;;;;5052841;28;20456;-77
2022/03/19 10:26:54;;;;;;;21.23;14.77;;;14.30;24.90;;;;;;5062993;28;20471;-78
2022/03/19 10:29:31;;;;;;;23.23;14.17;;;14.30;26.50;;;;;;5087208;28;20455;-78
2022/03/19 10:32:04;;;;;;;20.30;14.50;;;14.40;26.20;;;;;;5063014;28;20525;-78
2022/03/19 10:34:34;;;;;;;19.40;14.57;;;14.50;27.20;;;;;;5066156;28;20485;-77
2022/03/19 10:37:02;;;;;;;20.83;15.10;;;14.50;27.90;;;;;;5064976;28;20488;-79
2022/03/19 10:39:31;;;;;;;22.37;14.10;;;14.60;27.60;;;;;;5066555;28;20453;-79
2022/03/19 10:42:01;;;;;;;17.23;13.87;;;14.70;27.60;;;;;;5064824;28;20489;-78
2022/03/19 10:44:30;;;;;;;21.53;15.00;;;14.80;28.40;;;;;;5066875;28;20867;-78
2022/03/19 10:47:02;;;;;;;18.20;13.13;;;14.80;30.00;;;;;;5067031;28;20513;-78
2022/03/19 10:49:31;;;;;;;22.10;14.10;;;14.90;28.30;;;;;;5064798;28;20458;-79
2022/03/19 10:52:02;;;;;;;20.93;14.57;;;14.90;29.60;;;;;;5067238;28;20492;-77
2022/03/19 10:54:31;;;;;;;20.23;15.27;;;15.10;30.20;;;;;;5068911;28;20869;-78
2022/03/19 10:57:00;;;;;;;23.13;16.00;;;15.20;31.20;;;;;;5071194;28;20475;-78
2022/03/19 10:59:31;;;;;;;23.60;15.10;;;15.30;32.00;;;;;;5067110;28;20502;-76
2022/03/19 11:02:02;;;;;;;21.97;15.17;;;15.40;32.50;;;;;;5071190;28;20873;-79
2022/03/19 11:04:32;;;;;;;21.10;15.73;;;15.50;31.10;;;;;;5066389;28;20441;-78
2022/03/19 11:07:04;;;;;;;17.90;14.50;;;15.50;29.20;;;;;;5070759;28;20480;-78
2022/03/19 11:09:34;;;;;;;18.97;14.10;;;15.80;45.80;;;;;;5067406;28;20445;-78
2022/03/19 11:12:07;;;;;;;19.83;15.00;;;15.80;45.40;;;;;;5075969;28;20450;-77
2022/03/19 11:14:38;;;;;;;19.20;14.90;;;15.80;31.80;;;;;;5065161;28;20494;-78
2022/03/19 11:17:27;;;;;;;18.07;14.47;;;15.90;31.10;;;;;;5055754;28;20472;-78
2022/03/19 11:19:58;;;;;;;22.40;15.00;;;15.90;31.80;;;;;;5062441;28;20473;-78
2022/03/19 11:22:28;;;;;;;23.07;16.30;;;15.90;34.10;;;;;;5075995;28;20484;-78
2022/03/19 11:25:02;;;;;;;27.07;18.47;;;16.00;35.40;;;;;;5061582;28;20459;-78
2022/03/19 11:27:33;;;;;;;22.77;16.70;;;15.90;35.30;;;;;;5064522;28;20534;-78
2022/03/19 11:30:03;;;;;;;22.10;17.33;;;15.90;33.40;;;;;;5070217;28;20447;-80
2022/03/19 11:32:33;;;;;;;23.20;15.33;;;15.90;35.50;;;;;;5071407;28;20499;-79
2022/03/19 11:35:05;;;;;;;27.00;18.10;;;15.90;37.30;;;;;;5070000;28;20480;-78
2022/03/19 11:38:02;;;;;;;19.73;16.13;;;16.00;37.10;;;;;;5061599;28;20532;-78
2022/03/19 11:40:35;;;;;;;21.00;14.93;;;16.00;34.30;;;;;;5033109;28;20480;-78
2022/03/19 11:43:29;;;;;;;17.70;13.10;;;16.00;33.10;;;;;;5071206;28;20454;-77
2022/03/19 11:46:00;;;;;;;17.10;12.30;;;16.00;31.20;;;;;;5055690;28;20469;-78
2022/03/19 11:48:42;;;;;;;17.45;13.55;;;16.00;29.40;;;;;;5064457;28;20446;-77
2022/03/19 11:51:34;;;;;;;20.27;12.67;;;15.90;29.10;;;;;;5056785;28;20213;-78
2022/03/19 11:54:04;;;;;;;18.10;12.40;;;15.80;26.20;;;;;;5059250;28;20459;-78
2022/03/19 11:57:07;;;;;;;17.70;11.00;;;15.70;25.60;;;;;;5058728;28;20477;-78
2022/03/19 11:59:45;;;;;;;18.23;12.67;;;15.80;27.90;;;;;;5091481;27;20464;-78
2022/03/19 12:02:14;;;;;;;16.60;11.17;;;15.90;26.50;;;;;;5076139;28;20493;-77
2022/03/19 12:04:47;;;;;;;19.73;11.23;;;15.90;25.20;;;;;;5060192;28;20509;-78
2022/03/19 12:07:43;;;;;;;13.07;10.00;;;15.80;25.40;;;;;;5094875;28;20901;-78
2022/03/19 12:10:14;;;;;;;15.60;9.20;;;15.90;25.60;;;;;;5053904;28;20459;-77
2022/03/19 12:12:43;;;;;;;10.57;7.60;;;16.00;25.60;;;;;;5060107;28;20464;-78
2022/03/19 12:15:48;;;;;;;11.87;8.27;;;16.00;24.10;;;;;;5055631;28;20483;-78
2022/03/19 12:18:27;;;;;;;12.10;8.33;;;15.70;21.20;;;;;;5057009;28;20482;-76
2022/03/19 12:20:59;;;;;;;13.77;8.93;;;15.70;21.20;;;;;;5065521;28;20469;-77
2022/03/19 12:23:28;;;;;;;11.93;8.20;;;15.60;21.30;;;;;;5062349;28;20953;-78
2022/03/19 12:26:04;;;;;;;12.30;7.50;;;15.60;23.00;;;;;;5055373;28;20479;-77
2022/03/19 12:28:33;;;;;;;13.80;8.40;;;15.70;21.90;;;;;;5056339;28;20453;-78
2022/03/19 12:31:06;;;;;;;9.07;6.77;;;15.80;21.70;;;;;;5061898;28;20451;-77
2022/03/19 12:33:35;;;;;;;13.37;7.47;;;15.80;21.30;;;;;;5060299;28;20469;-77
2022/03/19 12:36:19;;;;;;;9.27;6.87;;;15.80;21.60;;;;;;5062606;28;20575;-75
2022/03/19 12:38:49;;;;;;;11.03;6.70;;;15.90;23.40;;;;;;5050961;28;20534;-76
2022/03/19 12:41:26;;;;;;;11.23;7.40;;;16.10;24.00;;;;;;5081000;28;20448;-80
2022/03/19 12:44:18;;;;;;;7.30;5.87;;;15.90;23.60;;;;;;5059061;28;22289;-79
2022/03/19 12:46:47;;;;;;;8.93;6.40;;;15.90;24.20;;;;;;5061460;28;20550;-79
2022/03/19 12:49:17;;;;;;;6.97;5.50;;;15.80;22.10;;;;;;5060926;28;20462;-78
2022/03/19 12:51:49;;;;;;;9.60;5.63;;;16.10;20.00;;;;;;5060803;28;20436;-79
2022/03/19 12:54:22;;;;;;;8.10;6.00;;;15.70;17.20;;;;;;5055872;28;20455;-78
2022/03/19 12:56:51;;;;;;;11.67;6.00;;;15.80;17.60;;;;;;5060281;28;20573;-79
2022/03/19 12:59:25;;;;;;;8.40;5.40;;;15.80;19.90;;;;;;5066397;28;20464;-78